createdAt,value
2022-09-23T00:00:00.743Z,8.5
2022-09-23T00:03:00.850Z,8.5
2022-09-23T00:06:00.742Z,8.5
2022-09-23T00:09:00.873Z,8.5
2022-09-23T00:12:00.761Z,8.5
2022-09-23T00:15:00.829Z,8.5
2022-09-23T00:18:00.732Z,8.5
2022-09-23T00:21:00.711Z,8.5
2022-09-23T00:24:00.804Z,8.5
2022-09-23T00:27:00.746Z,8.5
2022-09-23T00:30:00.781Z,8.5
2022-09-23T00:33:00.723Z,8.5
2022-09-23T00:36:00.703Z,8.5
2022-09-23T00:39:00.723Z,8.5
2022-09-23T00:42:00.714Z,8.5
2022-09-23T00:45:00.710Z,8.5
2022-09-23T00:48:00.744Z,8.1
2022-09-23T00:51:00.721Z,8.1
2022-09-23T00:54:00.819Z,8.1
2022-09-23T00:57:00.718Z,8.1
2022-09-23T01:00:00.736Z,8.1
2022-09-23T01:03:00.705Z,8.1
2022-09-23T01:06:00.694Z,8.1
2022-09-23T01:09:00.691Z,8.1
2022-09-23T01:12:00.737Z,8.1
2022-09-23T01:15:00.696Z,8.1
2022-09-23T01:18:00.722Z,7.8
2022-09-23T01:21:00.716Z,7.8
2022-09-23T01:24:00.728Z,7.8
2022-09-23T01:27:00.705Z,7.8
2022-09-23T01:30:00.682Z,7.8
2022-09-23T01:33:00.719Z,7.8
2022-09-23T01:36:00.729Z,7.8
2022-09-23T01:39:00.800Z,7.8
2022-09-23T01:42:00.661Z,7.5
2022-09-23T01:45:00.724Z,7.5
2022-09-23T01:48:00.860Z,7.5
2022-09-23T01:51:00.677Z,7.5
2022-09-23T01:54:00.806Z,7.5
2022-09-23T01:57:00.713Z,7.5
2022-09-23T02:00:00.762Z,7.5
2022-09-23T02:03:00.702Z,7.5
2022-09-23T02:06:00.740Z,7.5
2022-09-23T02:09:00.706Z,7.5
2022-09-23T02:12:00.722Z,7.5
2022-09-23T02:15:00.727Z,7.5
2022-09-23T02:18:01.535Z,7.5
2022-09-23T02:21:00.724Z,7.5
2022-09-23T02:24:00.751Z,7.5
2022-09-23T02:27:00.727Z,7.5
2022-09-23T02:30:00.730Z,7.1
2022-09-23T02:33:00.706Z,7.1
2022-09-23T02:36:00.704Z,7.1
2022-09-23T02:39:00.719Z,7.1
2022-09-23T02:42:00.714Z,7
2022-09-23T02:45:00.709Z,7
2022-09-23T02:48:00.723Z,7
2022-09-23T02:51:00.720Z,7
2022-09-23T02:54:00.733Z,7
2022-09-23T02:57:00.690Z,7
2022-09-23T03:00:00.770Z,7
2022-09-23T03:03:00.722Z,7
2022-09-23T03:06:00.708Z,7
2022-09-23T03:09:00.729Z,7
2022-09-23T03:12:00.685Z,7
2022-09-23T03:15:00.695Z,7
2022-09-23T03:18:00.705Z,6.8
2022-09-23T03:21:00.724Z,6.8
2022-09-23T03:24:00.729Z,6.8
2022-09-23T03:27:00.688Z,6.8
2022-09-23T03:30:00.774Z,6.8
2022-09-23T03:33:00.716Z,6.8
2022-09-23T03:36:00.735Z,6.8
2022-09-23T03:39:00.677Z,6.6
2022-09-23T03:42:00.736Z,6.6
2022-09-23T03:45:00.698Z,6.6
2022-09-23T03:48:00.750Z,6.5
2022-09-23T03:51:00.720Z,6.5
2022-09-23T03:54:00.677Z,6.5
2022-09-23T03:57:00.730Z,6.5
2022-09-23T04:00:00.795Z,6.5
2022-09-23T04:03:00.705Z,6.5
2022-09-23T04:06:00.782Z,6.5
2022-09-23T04:09:00.685Z,6.5
2022-09-23T04:12:00.732Z,6.5
2022-09-23T04:15:00.700Z,6.5
2022-09-23T04:18:00.739Z,6.5
2022-09-23T04:21:00.673Z,6.5
2022-09-23T04:24:00.762Z,6.3
2022-09-23T04:27:00.730Z,6.3
2022-09-23T04:30:00.734Z,6.3
2022-09-23T04:33:00.897Z,6.2
2022-09-23T04:36:00.755Z,6.2
2022-09-23T04:39:00.849Z,6.2
2022-09-23T04:42:00.743Z,6.2
2022-09-23T04:45:00.698Z,6.2
2022-09-23T04:48:00.739Z,6.2
2022-09-23T04:51:00.726Z,6.2
2022-09-23T04:54:00.710Z,6.2
2022-09-23T04:57:00.735Z,6.2
2022-09-23T05:00:00.794Z,6.2
2022-09-23T05:03:00.746Z,6.2
2022-09-23T05:06:00.721Z,6.2
2022-09-23T05:09:00.765Z,6.2
2022-09-23T05:12:00.832Z,6.2
2022-09-23T05:15:00.771Z,6.2
2022-09-23T05:18:00.736Z,6.2
2022-09-23T05:21:00.737Z,6.2
2022-09-23T05:24:01.029Z,6.1
2022-09-23T05:27:00.714Z,6.1
2022-09-23T05:30:01.038Z,6.1
2022-09-23T05:33:00.725Z,6.1
2022-09-23T05:36:00.834Z,6.1
2022-09-23T05:39:00.829Z,6.1
2022-09-23T05:42:00.740Z,6.1
2022-09-23T05:45:00.769Z,6.1
2022-09-23T05:48:00.815Z,6.1
2022-09-23T05:51:00.727Z,6.1
2022-09-23T05:54:00.824Z,6.1
2022-09-23T05:57:05.047Z,6.1
2022-09-23T06:00:00.794Z,6.1
2022-09-23T06:03:00.808Z,6.1
2022-09-23T06:06:00.786Z,6.1
2022-09-23T06:09:00.872Z,6.1
2022-09-23T06:12:00.748Z,6.1
2022-09-23T06:15:00.771Z,6.1
2022-09-23T06:18:00.804Z,6.1
2022-09-23T06:21:00.768Z,6.1
2022-09-23T06:24:00.862Z,6.6
2022-09-23T06:27:00.723Z,6.6
2022-09-23T06:30:00.850Z,6.6
2022-09-23T06:33:00.817Z,6.8
2022-09-23T06:36:00.781Z,6.8
2022-09-23T06:39:00.800Z,6.8
2022-09-23T06:42:00.814Z,6.8
2022-09-23T06:45:00.984Z,6.8
2022-09-23T06:48:00.779Z,6.8
2022-09-23T06:51:00.777Z,7.3
2022-09-23T06:54:00.815Z,7.3
2022-09-23T06:57:00.757Z,7.3
2022-09-23T07:00:00.919Z,7.3
2022-09-23T07:03:00.956Z,7.8
2022-09-23T07:06:00.776Z,7.8
2022-09-23T07:09:00.800Z,7.8
2022-09-23T07:12:00.778Z,7.8
2022-09-23T07:15:00.723Z,8.2
2022-09-23T07:18:00.761Z,8.3
2022-09-23T07:21:00.789Z,8.3
2022-09-23T07:24:00.853Z,8.3
2022-09-23T07:27:00.745Z,8.3
2022-09-23T07:30:00.862Z,8.8
2022-09-23T07:33:01.003Z,8.8
2022-09-23T07:36:00.788Z,8.8
2022-09-23T07:39:00.820Z,8.8
2022-09-23T07:42:00.799Z,9.3
2022-09-23T07:45:00.731Z,9.3
2022-09-23T07:48:00.788Z,9.3
2022-09-23T07:51:00.731Z,9.3
2022-09-23T07:54:00.809Z,9.3
2022-09-23T07:57:00.827Z,9.9
2022-09-23T08:00:00.816Z,9.9
2022-09-23T08:03:00.916Z,9.9
2022-09-23T08:06:00.762Z,10.1
2022-09-23T08:09:00.929Z,10.1
2022-09-23T08:12:00.801Z,10.1
2022-09-23T08:15:00.824Z,10.4
2022-09-23T08:18:00.747Z,10.4
2022-09-23T08:21:00.759Z,10.4
2022-09-23T08:24:00.888Z,10.4
2022-09-23T08:27:00.750Z,10.4
2022-09-23T08:30:00.881Z,10.9
2022-09-23T08:33:00.756Z,10.9
2022-09-23T08:36:00.803Z,10.9
2022-09-23T08:39:00.797Z,10.9
2022-09-23T08:42:00.765Z,10.9
2022-09-23T08:45:00.758Z,11.4
2022-09-23T08:48:00.716Z,11.4
2022-09-23T08:51:00.779Z,11.4
2022-09-23T08:54:00.783Z,11.4
2022-09-23T08:57:00.753Z,11.4
2022-09-23T09:00:00.810Z,11.9
2022-09-23T09:03:00.778Z,11.9
2022-09-23T09:06:00.742Z,11.9
2022-09-23T09:09:00.898Z,11.9
2022-09-23T09:12:00.763Z,12.4
2022-09-23T09:15:00.774Z,12.4
2022-09-23T09:18:00.779Z,12.4
2022-09-23T09:21:00.760Z,12.4
2022-09-23T09:24:00.834Z,12.9
2022-09-23T09:27:00.755Z,12.9
2022-09-23T09:30:00.780Z,12.9
2022-09-23T09:33:00.842Z,12.9
2022-09-23T09:36:00.799Z,12.9
2022-09-23T09:39:00.890Z,13.5
2022-09-23T09:42:00.725Z,13.5
2022-09-23T09:45:00.778Z,13.5
2022-09-23T09:48:00.751Z,13.5
2022-09-23T09:51:00.761Z,13.5
2022-09-23T09:54:00.702Z,14
2022-09-23T09:57:00.739Z,14
2022-09-23T10:00:00.728Z,14.2
2022-09-23T10:03:00.721Z,14.2
2022-09-23T10:06:00.729Z,14.5
2022-09-23T10:09:00.787Z,14.5
2022-09-23T10:12:00.669Z,14.5
2022-09-23T10:15:00.664Z,14.5
2022-09-23T10:18:00.835Z,15
2022-09-23T10:21:00.795Z,15
2022-09-23T10:24:00.749Z,15
2022-09-23T10:27:00.684Z,15
2022-09-23T10:30:00.901Z,15
2022-09-23T10:33:00.644Z,15
2022-09-23T10:36:00.716Z,15
2022-09-23T10:39:00.893Z,15.5
2022-09-23T10:42:00.773Z,15.5
2022-09-23T10:45:00.725Z,15.5
2022-09-23T10:48:00.709Z,15.5
2022-09-23T10:51:00.784Z,15.5
2022-09-23T10:54:00.838Z,15.5
2022-09-23T10:57:00.720Z,15.5
2022-09-23T11:00:00.777Z,15.9
2022-09-23T11:03:00.683Z,15.9
2022-09-23T11:06:00.687Z,15.9
2022-09-23T11:09:00.726Z,15.9
2022-09-23T11:12:00.680Z,15.9
2022-09-23T11:15:00.768Z,15.9
2022-09-23T11:18:00.696Z,15.9
2022-09-23T11:21:00.719Z,15.9
2022-09-23T11:24:00.797Z,15.9
2022-09-23T11:27:00.727Z,16.1
2022-09-23T11:30:00.753Z,16.1
2022-09-23T11:33:00.794Z,16.1
2022-09-23T11:36:00.707Z,16.1
2022-09-23T11:39:00.746Z,16.1
2022-09-23T11:42:00.752Z,16.1
2022-09-23T11:45:00.782Z,16.4
2022-09-23T11:48:00.807Z,16.4
2022-09-23T11:51:00.741Z,16.4
2022-09-23T11:54:00.822Z,16.4
2022-09-23T11:57:00.749Z,16.5
2022-09-23T12:00:00.787Z,16.5
2022-09-23T12:03:06.197Z,16.5
2022-09-23T12:06:00.893Z,16.5
2022-09-23T12:09:00.828Z,16.5
2022-09-23T12:12:00.758Z,16.9
2022-09-23T12:15:00.793Z,16.9
2022-09-23T12:18:00.731Z,16.9
2022-09-23T12:21:00.792Z,16.9
2022-09-23T12:24:00.831Z,16.9
2022-09-23T12:27:00.738Z,16.9
2022-09-23T12:30:00.755Z,16.9
2022-09-23T12:33:00.725Z,16.9
2022-09-23T12:36:00.698Z,16.9
2022-09-23T12:39:00.769Z,16.9
2022-09-23T12:42:00.741Z,16.9
2022-09-23T12:45:00.766Z,16.9
2022-09-23T12:48:00.716Z,16.9
2022-09-23T12:51:00.769Z,17.2
2022-09-23T12:54:00.901Z,17.3
2022-09-23T12:57:00.698Z,17.3
2022-09-23T13:00:00.792Z,17.3
2022-09-23T13:03:00.777Z,17.3
2022-09-23T13:06:00.758Z,17.3
2022-09-23T13:09:00.818Z,17.3
2022-09-23T13:12:00.712Z,17.3
2022-09-23T13:15:00.815Z,17.3
2022-09-23T13:18:00.773Z,17.3
2022-09-23T13:21:00.793Z,17.7
2022-09-23T13:24:00.936Z,17.7
2022-09-23T13:27:00.791Z,17.7
2022-09-23T13:30:00.847Z,17.7
2022-09-23T13:33:00.743Z,17.7
2022-09-23T13:36:00.721Z,17.7
2022-09-23T13:39:00.786Z,17.7
2022-09-23T13:42:00.691Z,17.8
2022-09-23T13:45:00.798Z,17.8
2022-09-23T13:48:00.744Z,17.8
2022-09-23T13:51:00.795Z,17.8
2022-09-23T13:54:00.924Z,17.8
2022-09-23T13:57:00.725Z,17.8
2022-09-23T14:00:00.862Z,17.8
2022-09-23T14:03:00.703Z,17.8
2022-09-23T14:06:00.763Z,17.8
2022-09-23T14:09:00.832Z,17.8
2022-09-23T14:12:00.747Z,17.8
2022-09-23T14:15:00.833Z,17.8
2022-09-23T14:18:00.771Z,17.8
2022-09-23T14:21:00.765Z,17.8
2022-09-23T14:24:00.890Z,17.8
2022-09-23T14:27:00.752Z,17.8
2022-09-23T14:30:00.864Z,17.8
2022-09-23T14:33:08.063Z,17.8
2022-09-23T14:36:00.907Z,17.8
2022-09-23T14:39:00.797Z,17.8
2022-09-23T14:42:00.786Z,17.8
2022-09-23T14:45:00.749Z,17.9
2022-09-23T14:48:00.788Z,17.9
2022-09-23T14:51:00.731Z,17.9
2022-09-23T14:54:00.886Z,17.9
2022-09-23T14:57:00.778Z,17.9
2022-09-23T15:00:00.833Z,17.9
2022-09-23T15:03:00.932Z,17.9
2022-09-23T15:06:06.368Z,17.9
2022-09-23T15:09:00.839Z,17.9
2022-09-23T15:12:00.785Z,17.9
2022-09-23T15:15:00.778Z,17.9
2022-09-23T15:18:00.776Z,17.9
2022-09-23T15:21:00.747Z,17.9
2022-09-23T15:24:00.920Z,17.9
2022-09-23T15:27:00.781Z,17.9
2022-09-23T15:30:00.853Z,17.9
2022-09-23T15:33:00.774Z,17.9
2022-09-23T15:36:00.761Z,17.9
2022-09-23T15:39:00.763Z,17.9
2022-09-23T15:42:00.792Z,17.9
2022-09-23T15:45:00.784Z,17.9
2022-09-23T15:48:00.838Z,17.9
2022-09-23T15:51:00.736Z,17.9
2022-09-23T15:54:00.765Z,17.9
2022-09-23T15:57:00.750Z,17.9
2022-09-23T16:00:00.857Z,17.9
2022-09-23T16:03:00.780Z,17.9
2022-09-23T16:06:00.871Z,17.9
2022-09-23T16:09:00.878Z,17.9
2022-09-23T16:12:00.743Z,17.9
2022-09-23T16:15:00.768Z,17.9
2022-09-23T16:18:00.742Z,17.6
2022-09-23T16:21:00.790Z,17.6
2022-09-23T16:24:00.750Z,17.6
2022-09-23T16:27:00.752Z,17.6
2022-09-23T16:30:00.789Z,17.6
2022-09-23T16:33:00.796Z,17.6
2022-09-23T16:36:00.806Z,17.4
2022-09-23T16:39:00.979Z,17.4
2022-09-23T16:42:00.778Z,17.4
2022-09-23T16:45:00.792Z,17.4
2022-09-23T16:48:00.776Z,17.4
2022-09-23T16:51:00.857Z,17.4
2022-09-23T16:54:00.841Z,17.4
2022-09-23T16:57:00.783Z,17.1
2022-09-23T17:00:00.894Z,17.1
2022-09-23T17:03:00.780Z,17.1
2022-09-23T17:06:07.336Z,17.1
2022-09-23T17:09:00.964Z,17.1
2022-09-23T17:12:00.759Z,17.1
2022-09-23T17:15:00.768Z,17.1
2022-09-23T17:18:00.711Z,17.1
2022-09-23T17:21:00.742Z,17.1
2022-09-23T17:24:00.766Z,17.1
2022-09-23T17:27:00.733Z,16.8
2022-09-23T17:30:00.764Z,16.8
2022-09-23T17:33:00.717Z,16.8
2022-09-23T17:36:00.731Z,16.8
2022-09-23T17:39:00.869Z,16.8
2022-09-23T17:42:00.761Z,16.8
2022-09-23T17:45:00.775Z,16.8
2022-09-23T17:48:00.789Z,16.8
2022-09-23T17:51:00.726Z,16.8
2022-09-23T17:54:00.768Z,16.8
2022-09-23T17:57:00.725Z,16.8
2022-09-23T18:00:00.785Z,16.8
2022-09-23T18:03:00.701Z,16.8
2022-09-23T18:06:00.738Z,16.8
2022-09-23T18:09:00.916Z,16.1
2022-09-23T18:12:00.723Z,16.1
2022-09-23T18:15:00.719Z,16.1
2022-09-23T18:18:00.771Z,16.1
2022-09-23T18:21:00.775Z,16.1
2022-09-23T18:24:32.145Z,15.9
2022-09-23T18:27:00.711Z,15.9
2022-09-23T18:30:00.755Z,15.9
2022-09-23T18:33:00.781Z,15.9
2022-09-23T18:36:00.756Z,15.9
2022-09-23T18:39:00.778Z,15.9
2022-09-23T18:42:00.726Z,15.9
2022-09-23T18:45:00.748Z,15.6
2022-09-23T18:48:00.788Z,15.6
2022-09-23T18:51:00.795Z,15.6
2022-09-23T18:54:00.953Z,15.6
2022-09-23T18:57:00.733Z,15.6
2022-09-23T19:00:00.780Z,15.6
2022-09-23T19:03:00.734Z,15.6
2022-09-23T19:06:00.729Z,15.6
2022-09-23T19:09:00.719Z,15.6
2022-09-23T19:12:00.722Z,15.6
2022-09-23T19:15:00.769Z,15.6
2022-09-23T19:18:00.715Z,15.1
2022-09-23T19:21:07.034Z,15.2
2022-09-23T19:24:00.797Z,15.2
2022-09-23T19:27:00.713Z,15.2
2022-09-23T19:30:00.776Z,15.2
2022-09-23T19:33:00.745Z,15.2
2022-09-23T19:36:00.778Z,15.2
2022-09-23T19:39:00.729Z,15.2
2022-09-23T19:42:00.723Z,15.2
2022-09-23T19:45:00.723Z,14.6
2022-09-23T19:48:00.736Z,14.6
2022-09-23T19:51:00.738Z,14.6
2022-09-23T19:54:00.881Z,14.6
2022-09-23T19:57:00.724Z,14.6
2022-09-23T20:00:00.796Z,14.6
2022-09-23T20:03:00.689Z,14.6
2022-09-23T20:06:00.696Z,14.6
2022-09-23T20:09:00.706Z,14.6
2022-09-23T20:12:00.721Z,14.2
2022-09-23T20:15:00.709Z,14.2
2022-09-23T20:18:00.719Z,14.2
2022-09-23T20:21:00.695Z,14.1
2022-09-23T20:24:00.815Z,14.1
2022-09-23T20:27:00.685Z,14.1
2022-09-23T20:30:00.766Z,14.1
2022-09-23T20:33:00.730Z,14.1
2022-09-23T20:36:00.747Z,14.1
2022-09-23T20:39:00.718Z,14.1
2022-09-23T20:42:00.705Z,14.1
2022-09-23T20:45:00.899Z,14.1
2022-09-23T20:48:00.698Z,14.1
2022-09-23T20:51:00.736Z,14.1
2022-09-23T20:54:00.978Z,13.9
2022-09-23T20:57:00.749Z,13.9
2022-09-23T21:00:00.738Z,13.9
2022-09-23T21:03:00.731Z,13.9
2022-09-23T21:06:00.702Z,13.8
2022-09-23T21:09:00.774Z,13.8
2022-09-23T21:12:00.800Z,13.8
2022-09-23T21:15:00.714Z,13.8
2022-09-23T21:18:00.731Z,13.8
2022-09-23T21:21:00.983Z,13.8
2022-09-23T21:24:53.409Z,13.8
2022-09-23T21:27:00.695Z,13.8
2022-09-23T21:30:00.719Z,13.8
2022-09-23T21:33:00.737Z,13.8
2022-09-23T21:36:00.727Z,13.8
2022-09-23T21:39:00.713Z,13.8
2022-09-23T21:42:00.717Z,13.4
2022-09-23T21:45:00.712Z,13.4
2022-09-23T21:48:00.718Z,13.4
2022-09-23T21:51:00.701Z,13.4
2022-09-23T21:54:00.882Z,13.4
2022-09-23T21:57:00.784Z,13.4
2022-09-23T22:00:00.881Z,13.4
2022-09-23T22:03:00.687Z,13.3
2022-09-23T22:06:00.792Z,13.3
2022-09-23T22:09:00.722Z,13.3
2022-09-23T22:12:00.748Z,13.3
2022-09-23T22:15:00.707Z,13.3
2022-09-23T22:18:00.723Z,13.3
2022-09-23T22:21:00.772Z,13.3
2022-09-23T22:24:00.939Z,13.3
2022-09-23T22:27:00.674Z,13.3
2022-09-23T22:30:00.784Z,13.3
2022-09-23T22:33:00.707Z,13.3
2022-09-23T22:36:00.715Z,13.3
2022-09-23T22:39:00.750Z,13.3
2022-09-23T22:42:00.764Z,13.3
2022-09-23T22:45:00.698Z,13.3
2022-09-23T22:48:00.740Z,13.3
2022-09-23T22:51:00.688Z,13.3
2022-09-23T22:54:00.865Z,13
2022-09-23T22:57:00.661Z,13
2022-09-23T23:00:00.740Z,13
2022-09-23T23:03:00.699Z,13
2022-09-23T23:06:00.725Z,13
2022-09-23T23:09:01.585Z,13
2022-09-23T23:12:00.719Z,12.9
2022-09-23T23:15:00.709Z,12.9
2022-09-23T23:18:00.706Z,12.9
2022-09-23T23:21:00.711Z,12.9
2022-09-23T23:24:00.889Z,12.9
2022-09-23T23:27:00.693Z,12.9
2022-09-23T23:30:00.737Z,12.9
2022-09-23T23:33:00.706Z,12.9
2022-09-23T23:36:00.681Z,12.9
2022-09-23T23:39:00.797Z,12.8
2022-09-23T23:42:00.702Z,12.8
2022-09-23T23:45:00.715Z,12.8
2022-09-23T23:48:00.693Z,12.8
2022-09-23T23:51:00.712Z,12.8
2022-09-23T23:54:00.893Z,12.8
2022-09-23T23:57:00.694Z,12.8
